Time;durP1;ratioP1;P1;durP2;ratioP2;P2;SDS_P1;SDS_P2;PMS_P1;PMS_P2;Temp;Humidity;BMP_temperature;BMP_pressure;BME280_temperature;BME280_humidity;BME280_pressure;Samples;Min_cycle;Max_cycle;Signal;HPM_P1;HPM_P2
2022/05/29 00:01:42;;;;;;;17.88;4.00;;;7.00;99.90;;;;;;5074796;28;20074;-68
2022/05/29 00:04:08;;;;;;;10.48;3.47;;;6.90;99.90;;;;;;5073884;28;20021;-68
2022/05/29 00:06:39;;;;;;;10.00;3.40;;;6.90;99.90;;;;;;5073825;28;20098;-68
2022/05/29 00:09:05;;;;;;;12.68;3.50;;;6.90;99.90;;;;;;5075042;28;20392;-68
2022/05/29 00:11:31;;;;;;;8.95;3.25;;;6.80;99.90;;;;;;5074889;28;20026;-67
2022/05/29 00:14:00;;;;;;;9.23;4.00;;;6.70;99.90;;;;;;5074776;28;20032;-68
2022/05/29 00:16:27;;;;;;;9.80;3.83;;;6.70;99.90;;;;;;5074779;28;20051;-67
2022/05/29 00:18:54;;;;;;;7.60;3.75;;;6.80;99.90;;;;;;5074733;28;20471;-68
2022/05/29 00:21:19;;;;;;;8.98;3.67;;;6.70;99.90;;;;;;5073499;28;20029;-68
2022/05/29 00:23:49;;;;;;;12.05;3.85;;;6.60;99.90;;;;;;5073589;28;20466;-67
2022/05/29 00:26:14;;;;;;;10.70;4.22;;;6.60;99.90;;;;;;5073658;28;20022;-68
2022/05/29 00:28:40;;;;;;;11.82;4.35;;;6.70;99.90;;;;;;5073170;28;20470;-68
2022/05/29 00:31:06;;;;;;;11.27;4.45;;;6.60;99.90;;;;;;5074537;28;20077;-67
2022/05/29 00:33:31;;;;;;;11.27;4.65;;;6.70;99.90;;;;;;5074398;28;20028;-68
2022/05/29 00:35:57;;;;;;;16.48;4.85;;;6.70;99.90;;;;;;5074300;28;20021;-67
2022/05/29 00:38:22;;;;;;;16.05;4.55;;;6.70;99.90;;;;;;5074310;28;20032;-67
2022/05/29 00:40:56;;;;;;;11.38;4.35;;;6.80;99.90;;;;;;5072945;28;20501;-69
2022/05/29 00:43:21;;;;;;;11.02;3.72;;;6.70;99.90;;;;;;5074261;28;20501;-68
2022/05/29 00:45:52;;;;;;;10.30;4.22;;;6.70;99.90;;;;;;5074134;28;20025;-67
2022/05/29 00:48:19;;;;;;;14.32;5.43;;;6.70;99.90;;;;;;5074156;28;20048;-67
2022/05/29 00:50:47;;;;;;;13.95;4.68;;;6.80;99.90;;;;;;5074171;28;20028;-67
2022/05/29 00:53:14;;;;;;;12.05;5.13;;;6.80;99.90;;;;;;5072924;28;20483;-68
2022/05/29 00:55:45;;;;;;;15.10;4.70;;;6.80;99.90;;;;;;5072692;28;20057;-67
2022/05/29 00:58:11;;;;;;;12.63;4.88;;;6.90;99.90;;;;;;5074017;28;20074;-68
2022/05/29 01:00:37;;;;;;;14.60;4.72;;;6.90;99.90;;;;;;5073929;28;20032;-67
2022/05/29 01:03:04;;;;;;;11.45;4.78;;;6.90;99.90;;;;;;5073670;28;20509;-68
2022/05/29 01:05:33;;;;;;;12.30;4.70;;;6.80;99.90;;;;;;5073778;28;20021;-67
2022/05/29 01:08:21;;;;;;;11.80;4.97;;;6.80;99.90;;;;;;5073724;28;20523;-67
2022/05/29 01:11:12;;;;;;;11.82;4.38;;;6.80;99.90;;;;;;5072518;28;20069;-67
2022/05/29 01:14:02;;;;;;;9.50;4.75;;;6.80;99.90;;;;;;5073519;28;20490;-68
2022/05/29 01:16:40;;;;;;;11.07;4.35;;;6.80;99.90;;;;;;5073634;28;20024;-67
2022/05/29 01:19:39;;;;;;;13.23;5.18;;;6.80;99.90;;;;;;5073596;28;20052;-67
2022/05/29 01:22:32;;;;;;;11.48;4.65;;;6.80;99.90;;;;;;5073334;28;20118;-67
2022/05/29 01:25:08;;;;;;;;;;;6.90;99.90;;;;;;5072817;28;20032;-67
2022/05/29 01:28:11;;;;;;;9.65;4.10;;;7.00;99.90;;;;;;5073431;28;19904;-67
2022/05/29 01:30:43;;;;;;;16.48;4.63;;;7.00;99.90;;;;;;5073547;28;20028;-67
2022/05/29 01:33:22;;;;;;;15.65;4.47;;;7.10;99.90;;;;;;5073472;28;20016;-67
2022/05/29 01:35:56;;;;;;;12.60;4.95;;;7.20;99.90;;;;;;5072024;28;20032;-67
2022/05/29 01:38:30;;;;;;;12.23;4.43;;;7.20;99.90;;;;;;5073360;28;20031;-67
2022/05/29 01:41:16;;;;;;;9.85;4.15;;;7.20;99.90;;;;;;5073263;28;20024;-67
2022/05/29 01:43:50;;;;;;;13.60;3.95;;;7.20;99.90;;;;;;5071961;28;20048;-70
2022/05/29 01:46:25;;;;;;;15.95;5.45;;;7.30;99.90;;;;;;5073276;28;20020;-66
2022/05/29 01:49:15;;;;;;;11.50;4.03;;;7.30;99.90;;;;;;5073217;28;20020;-67
2022/05/29 01:51:51;;;;;;;11.77;4.72;;;7.30;99.90;;;;;;5073124;28;20032;-67
2022/05/29 01:54:24;;;;;;;13.35;4.53;;;7.30;99.90;;;;;;5073211;28;20025;-67
2022/05/29 01:56:55;;;;;;;12.88;4.40;;;7.30;99.90;;;;;;5073141;28;20165;-67
2022/05/29 01:59:28;;;;;;;14.70;4.70;;;7.30;99.90;;;;;;5073104;28;20039;-67
2022/05/29 02:02:08;;;;;;;13.50;4.53;;;7.20;99.90;;;;;;5072814;28;20036;-67
2022/05/29 02:04:39;;;;;;;11.35;4.40;;;7.20;99.90;;;;;;5071942;28;20585;-67
2022/05/29 02:10:35;;;;;;;17.65;4.30;;;7.20;99.90;;;;;;5072866;28;20506;-67
2022/05/29 02:13:23;;;;;;;10.07;4.65;;;7.20;99.90;;;;;;5072832;28;20085;-67
2022/05/29 02:16:08;;;;;;;14.25;3.85;;;7.20;99.90;;;;;;5057778;28;20029;-67
2022/05/29 02:19:00;;;;;;;17.35;4.20;;;7.30;99.90;;;;;;5073070;28;20479;-68
2022/05/29 02:21:34;;;;;;;14.02;4.15;;;7.30;99.90;;;;;;5072763;28;20042;-68
2022/05/29 02:24:07;;;;;;;13.45;4.32;;;7.40;99.90;;;;;;5072852;28;20029;-67
2022/05/29 02:26:38;;;;;;;8.65;4.30;;;7.40;99.90;;;;;;5072773;28;20017;-67
2022/05/29 02:29:08;;;;;;;16.25;4.72;;;7.50;99.90;;;;;;5072810;28;20017;-68
2022/05/29 02:32:14;;;;;;;15.05;4.18;;;7.50;99.90;;;;;;5072880;28;20024;-67
2022/05/29 02:35:05;;;;;;;16.38;4.22;;;7.50;99.90;;;;;;5072637;28;20086;-67
2022/05/29 02:37:45;;;;;;;19.63;4.55;;;7.50;99.90;;;;;;5071340;28;20086;-67
2022/05/29 02:40:21;;;;;;;11.48;4.50;;;7.60;99.90;;;;;;5072821;28;20056;-67
2022/05/29 02:43:24;;;;;;;13.57;4.72;;;7.60;99.90;;;;;;5071393;28;20561;-67
2022/05/29 02:46:14;;;;;;;12.80;4.85;;;7.50;99.90;;;;;;5072566;28;20038;-67
2022/05/29 02:49:04;;;;;;;13.15;4.72;;;7.60;99.90;;;;;;5072951;28;20024;-67
2022/05/29 02:51:39;;;;;;;12.73;4.28;;;7.50;99.90;;;;;;5075154;28;20402;-67
2022/05/29 02:54:05;;;;;;;14.00;4.35;;;7.50;99.90;;;;;;5075361;28;20376;-68
2022/05/29 02:56:30;;;;;;;13.30;4.72;;;7.60;99.90;;;;;;5075030;28;20020;-67
2022/05/29 02:58:58;;;;;;;20.35;4.97;;;7.60;99.90;;;;;;5076266;28;20036;-67
2022/05/29 03:01:39;;;;;;;13.90;5.07;;;7.60;99.90;;;;;;5075936;28;20040;-67
2022/05/29 03:04:36;;;;;;;11.82;4.15;;;7.60;99.90;;;;;;5076118;28;20016;-67
2022/05/29 03:07:13;;;;;;;16.13;4.40;;;7.70;99.90;;;;;;5076034;28;20031;-67
2022/05/29 03:10:18;;;;;;;9.15;4.15;;;7.70;99.90;;;;;;5074791;28;20576;-67
2022/05/29 03:13:17;;;;;;;13.98;4.70;;;7.70;99.90;;;;;;5074987;28;20028;-67
2022/05/29 03:16:05;;;;;;;12.18;4.70;;;7.70;99.90;;;;;;5075831;28;20048;-67
2022/05/29 03:18:40;;;;;;;14.48;4.85;;;7.80;99.90;;;;;;5075818;28;20031;-67
2022/05/29 03:21:29;;;;;;;10.95;4.07;;;7.80;99.90;;;;;;5074692;28;20028;-67
2022/05/29 03:24:19;;;;;;;17.73;5.15;;;7.70;99.90;;;;;;5075675;28;20597;-67
2022/05/29 03:26:54;;;;;;;12.57;4.70;;;7.80;99.90;;;;;;5075780;28;20112;-68
2022/05/29 03:29:44;;;;;;;21.63;5.80;;;7.80;99.90;;;;;;5075730;28;20481;-67
2022/05/29 03:32:10;;;;;;;14.10;4.72;;;7.80;99.90;;;;;;5074348;28;20058;-68
2022/05/29 03:34:36;;;;;;;16.10;5.43;;;7.80;99.90;;;;;;5074522;28;20028;-67
2022/05/29 03:37:01;;;;;;;11.88;4.95;;;7.80;99.90;;;;;;5057591;28;20497;-68
2022/05/29 03:39:27;;;;;;;19.33;4.85;;;7.80;99.90;;;;;;5074266;28;20059;-67
2022/05/29 03:41:54;;;;;;;14.05;4.97;;;7.80;99.90;;;;;;5075455;28;20020;-67
2022/05/29 03:44:21;;;;;;;9.00;4.40;;;7.80;99.90;;;;;;5074316;28;20413;-68
2022/05/29 03:46:47;;;;;;;21.45;6.03;;;7.80;99.90;;;;;;5074207;28;20052;-67
2022/05/29 03:49:15;;;;;;;14.57;5.32;;;7.80;99.90;;;;;;5075370;28;20478;-67
2022/05/29 03:51:41;;;;;;;13.68;5.30;;;7.70;99.90;;;;;;5075318;28;20029;-68
2022/05/29 03:54:07;;;;;;;12.65;4.78;;;7.70;99.90;;;;;;5075333;28;20033;-67
2022/05/29 03:56:33;;;;;;;11.02;4.95;;;7.70;99.90;;;;;;5075211;28;20107;-67
2022/05/29 03:58:58;;;;;;;12.77;5.03;;;7.70;99.90;;;;;;5075063;28;20537;-67
2022/05/29 04:01:25;;;;;;;17.45;5.20;;;7.70;99.90;;;;;;5074884;28;20041;-67
2022/05/29 04:03:53;;;;;;;18.95;4.75;;;7.80;99.90;;;;;;5075103;28;20423;-67
2022/05/29 04:06:20;;;;;;;10.05;4.47;;;7.80;99.90;;;;;;5075026;28;20023;-67
2022/05/29 04:14:17;;;;;;;12.48;5.15;;;7.90;99.90;;;;;;5074709;28;20027;-67
2022/05/29 04:16:43;;;;;;;12.82;4.90;;;7.90;99.90;;;;;;5073511;28;20021;-67
2022/05/29 04:19:08;;;;;;;14.35;4.63;;;8.00;99.90;;;;;;5073662;28;20029;-67
2022/05/29 04:21:34;;;;;;;17.75;5.82;;;8.10;99.90;;;;;;5074619;28;20026;-68
2022/05/29 04:23:59;;;;;;;14.50;5.32;;;8.20;99.90;;;;;;5074624;28;20053;-68
2022/05/29 04:26:25;;;;;;;11.32;4.78;;;8.20;99.90;;;;;;5073370;28;20499;-67
2022/05/29 04:28:51;;;;;;;9.93;4.43;;;8.20;99.90;;;;;;5073295;28;20115;-67
2022/05/29 04:31:16;;;;;;;8.73;4.13;;;8.20;99.90;;;;;;5074597;28;20031;-68
2022/05/29 04:33:42;;;;;;;9.40;4.60;;;8.20;99.90;;;;;;5074531;28;20378;-67
2022/05/29 04:36:07;;;;;;;13.25;5.28;;;8.30;99.90;;;;;;5074424;28;20447;-67
2022/05/29 04:38:33;;;;;;;12.77;5.10;;;8.30;99.90;;;;;;5074313;28;20501;-67
2022/05/29 04:41:06;;;;;;;15.85;5.30;;;8.40;99.90;;;;;;5074325;28;20052;-67
2022/05/29 04:43:31;;;;;;;10.77;4.32;;;8.40;99.90;;;;;;5074279;28;20390;-66
2022/05/29 04:45:57;;;;;;;10.65;5.32;;;8.50;99.90;;;;;;5073001;28;20040;-67
2022/05/29 04:48:23;;;;;;;12.88;5.30;;;8.50;99.90;;;;;;5073048;28;20021;-67
2022/05/29 04:50:54;;;;;;;13.40;4.93;;;8.50;99.90;;;;;;5074145;28;20020;-67
2022/05/29 04:53:19;;;;;;;15.40;5.85;;;8.50;99.90;;;;;;5074078;28;20028;-67
2022/05/29 04:55:45;;;;;;;10.63;5.03;;;8.50;99.90;;;;;;5074058;28;20170;-67
2022/05/29 04:58:10;;;;;;;13.85;5.47;;;8.50;99.90;;;;;;5073956;28;20036;-68
2022/05/29 05:00:36;;;;;;;12.68;5.15;;;8.50;99.90;;;;;;5072898;28;20474;-67
2022/05/29 05:03:01;;;;;;;15.45;6.20;;;8.50;99.90;;;;;;5072474;28;20055;-68
2022/05/29 05:05:28;;;;;;;13.55;5.68;;;8.40;99.90;;;;;;5073848;28;20024;-67
2022/05/29 05:07:54;;;;;;;14.15;6.13;;;8.40;99.90;;;;;;5073806;28;20022;-67
2022/05/29 05:10:20;;;;;;;10.95;6.82;;;8.40;99.90;;;;;;5073609;28;20028;-67
2022/05/29 05:12:46;;;;;;;9.70;5.82;;;8.40;99.90;;;;;;5073523;28;20095;-67
2022/05/29 05:15:14;;;;;;;18.77;6.32;;;8.40;99.90;;;;;;5073687;28;20031;-67
2022/05/29 05:17:40;;;;;;;15.02;6.32;;;8.40;99.90;;;;;;5073729;28;20390;-68
2022/05/29 05:20:06;;;;;;;15.45;5.95;;;8.50;99.90;;;;;;5072315;28;20029;-67
2022/05/29 05:22:34;;;;;;;14.75;5.75;;;;;;;;;;5073368;28;20066;-67
2022/05/29 05:24:59;;;;;;;18.40;6.35;;;8.40;99.90;;;;;;5073440;28;20518;-70
2022/05/29 05:27:25;;;;;;;12.13;6.18;;;8.50;99.90;;;;;;5073454;28;20105;-68
2022/05/29 05:29:51;;;;;;;13.20;6.43;;;8.50;99.90;;;;;;5073508;28;20387;-68
2022/05/29 05:32:16;;;;;;;13.60;6.72;;;8.60;99.90;;;;;;5072282;28;20107;-67
2022/05/29 05:34:42;;;;;;;14.13;6.97;;;8.50;99.90;;;;;;5073416;28;20025;-68
2022/05/29 05:37:09;;;;;;;13.63;5.88;;;8.60;99.90;;;;;;5072330;28;20099;-67
2022/05/29 05:39:35;;;;;;;17.40;6.80;;;8.60;99.90;;;;;;5073334;28;20024;-67
2022/05/29 05:42:00;;;;;;;12.45;6.38;;;8.60;99.90;;;;;;5073179;28;20090;-67
2022/05/29 05:44:26;;;;;;;13.63;6.40;;;8.70;99.90;;;;;;5071990;28;20035;-67
2022/05/29 05:46:53;;;;;;;16.15;7.18;;;8.90;99.90;;;;;;5072006;28;20099;-67
2022/05/29 05:49:21;;;;;;;17.02;7.22;;;8.90;99.90;;;;;;5055179;28;20074;-67
2022/05/29 05:51:47;;;;;;;11.55;5.70;;;9.00;99.90;;;;;;5071925;28;20025;-67
2022/05/29 05:54:13;;;;;;;14.93;6.30;;;9.00;99.90;;;;;;5055192;28;20020;-67
2022/05/29 05:56:42;;;;;;;13.70;6.80;;;9.10;99.90;;;;;;5073198;28;20438;-67
2022/05/29 05:59:07;;;;;;;17.27;6.70;;;9.20;99.90;;;;;;5073248;28;20016;-68
2022/05/29 06:01:33;;;;;;;14.75;6.85;;;9.20;99.90;;;;;;5072841;28;20051;-68
2022/05/29 06:03:58;;;;;;;16.05;6.60;;;9.20;99.90;;;;;;5073080;28;20028;-67
2022/05/29 06:06:24;;;;;;;18.17;6.72;;;9.30;99.90;;;;;;5073053;28;20390;-67
2022/05/29 06:08:49;;;;;;;12.63;7.00;;;9.30;99.90;;;;;;5073058;28;20391;-68
2022/05/29 06:11:15;;;;;;;11.95;6.78;;;9.40;99.90;;;;;;5073019;28;20467;-68
2022/05/29 06:13:41;;;;;;;13.52;6.40;;;9.50;99.90;;;;;;5073086;28;20442;-68
2022/05/29 06:16:06;;;;;;;13.32;6.15;;;9.50;99.90;;;;;;5071727;28;20017;-67
2022/05/29 06:18:32;;;;;;;13.60;6.38;;;9.30;99.90;;;;;;5054948;28;20111;-67
2022/05/29 06:21:00;;;;;;;14.05;6.28;;;9.40;99.90;;;;;;5072941;28;20056;-67
2022/05/29 06:23:27;;;;;;;14.38;6.40;;;9.40;99.90;;;;;;5074243;28;20453;-67
2022/05/29 06:25:52;;;;;;;10.73;6.10;;;9.60;99.90;;;;;;5075766;28;20028;-67
2022/05/29 06:28:18;;;;;;;15.35;6.30;;;9.70;99.90;;;;;;5076827;28;20021;-67
2022/05/29 06:30:44;;;;;;;14.70;6.45;;;9.80;99.90;;;;;;5076775;28;20398;-67
2022/05/29 06:33:11;;;;;;;16.98;6.68;;;9.70;99.90;;;;;;5076845;28;20445;-67
2022/05/29 06:35:36;;;;;;;11.38;6.63;;;10.00;99.90;;;;;;5075689;28;20069;-67
2022/05/29 06:38:02;;;;;;;15.23;6.75;;;10.30;99.90;;;;;;5076742;28;20024;-67
2022/05/29 06:40:28;;;;;;;13.93;6.38;;;10.30;99.90;;;;;;5075366;28;20024;-68
2022/05/29 06:42:53;;;;;;;12.95;6.22;;;10.40;99.90;;;;;;5076518;28;20025;-68
2022/05/29 06:45:19;;;;;;;15.75;6.00;;;10.40;99.90;;;;;;5076577;28;20092;-68
2022/05/29 06:47:44;;;;;;;12.38;5.40;;;10.30;99.90;;;;;;5076505;28;20067;-67
2022/05/29 06:50:11;;;;;;;12.35;5.60;;;10.40;99.90;;;;;;5076482;28;20021;-67
2022/05/29 06:52:37;;;;;;;11.95;5.78;;;10.40;99.90;;;;;;5076359;28;20438;-67
2022/05/29 06:55:04;;;;;;;10.63;5.60;;;10.30;99.90;;;;;;5076309;28;20025;-67
2022/05/29 06:57:37;;;;;;;15.02;5.78;;;10.40;99.90;;;;;;5076313;28;20024;-67
2022/05/29 07:08:28;;;;;;;16.08;6.22;;;10.50;99.90;;;;;;5075974;28;20083;-67
2022/05/29 07:10:55;;;;;;;22.60;6.22;;;10.60;99.90;;;;;;5058146;28;20478;-68
2022/05/29 07:13:22;;;;;;;13.40;5.13;;;10.70;99.90;;;;;;5076118;28;20017;-68
2022/05/29 07:15:48;;;;;;;14.77;5.20;;;10.80;99.90;;;;;;5075980;28;20017;-68
2022/05/29 07:18:13;;;;;;;15.45;5.55;;;11.20;99.90;;;;;;5076044;28;20035;-68
2022/05/29 07:20:39;;;;;;;12.18;5.40;;;11.30;99.90;;;;;;5076028;28;20069;-69
2022/05/29 07:23:04;;;;;;;11.73;5.25;;;11.40;99.90;;;;;;5074488;28;20384;-68
2022/05/29 07:25:30;;;;;;;10.60;5.30;;;11.20;99.90;;;;;;5074676;28;20508;-68
2022/05/29 07:27:55;;;;;;;13.93;5.93;;;11.30;99.90;;;;;;5075759;28;20060;-68
2022/05/29 07:30:21;;;;;;;15.07;5.35;;;11.70;99.90;;;;;;5074396;28;20413;-68
2022/05/29 07:32:47;;;;;;;13.73;5.82;;;11.90;99.90;;;;;;5074558;28;20483;-68
2022/05/29 07:35:13;;;;;;;12.57;5.13;;;12.00;99.90;;;;;;5075105;28;20024;-69
2022/05/29 07:37:39;;;;;;;12.40;5.38;;;12.10;99.90;;;;;;5075585;28;20391;-68
2022/05/29 07:40:05;;;;;;;16.77;5.72;;;11.90;99.90;;;;;;5074387;28;20020;-69
2022/05/29 07:45:16;;;;;;;10.68;4.90;;;12.20;99.90;;;;;;5075292;28;20077;-68
2022/05/29 07:47:44;;;;;;;10.93;4.97;;;12.40;99.90;;;;;;5074147;28;20021;-69
2022/05/29 07:50:13;;;;;;;14.45;5.22;;;12.50;99.90;;;;;;5075447;28;20016;-68
2022/05/29 07:52:38;;;;;;;12.13;4.78;;;12.40;99.90;;;;;;5057660;28;20033;-68
2022/05/29 07:55:04;;;;;;;12.70;5.18;;;12.20;99.90;;;;;;5075281;28;20037;-69
2022/05/29 07:57:30;;;;;;;10.25;4.43;;;12.30;99.90;;;;;;5074089;28;20020;-68
2022/05/29 07:59:55;;;;;;;17.17;5.07;;;12.40;99.90;;;;;;5057233;28;20392;-68
2022/05/29 08:02:21;;;;;;;12.50;4.57;;;12.60;99.90;;;;;;5074865;28;20041;-68
2022/05/29 08:04:47;;;;;;;11.27;5.25;;;12.20;99.90;;;;;;5075121;28;20514;-68
2022/05/29 08:07:16;;;;;;;12.70;4.97;;;12.20;99.90;;;;;;5073868;28;20020;-68
2022/05/29 08:09:42;;;;;;;8.73;4.75;;;12.20;99.90;;;;;;5074980;28;20108;-68
2022/05/29 08:12:08;;;;;;;9.23;4.30;;;12.30;99.90;;;;;;5073691;28;20059;-67
2022/05/29 08:14:33;;;;;;;13.15;4.47;;;12.20;99.90;;;;;;5073705;28;20029;-68
2022/05/29 08:16:59;;;;;;;12.05;4.28;;;12.10;99.90;;;;;;5074806;28;20035;-68
2022/05/29 08:19:25;;;;;;;6.70;3.67;;;11.90;99.90;;;;;;5074758;28;20032;-68
2022/05/29 08:21:50;;;;;;;11.68;4.63;;;12.20;99.90;;;;;;5073410;28;20060;-68
2022/05/29 08:32:33;;;;;;;7.45;3.60;;;13.00;99.90;;;;;;5074337;28;20502;-69
2022/05/29 08:35:00;;;;;;;14.73;3.75;;;13.10;99.90;;;;;;5074517;28;20020;-70
2022/05/29 08:37:26;;;;;;;10.80;3.90;;;;;;;;;;5074318;28;20024;-69
2022/05/29 08:39:51;;;;;;;12.68;3.72;;;14.20;99.90;;;;;;5074312;28;20032;-69
2022/05/29 08:42:18;;;;;;;11.68;3.33;;;14.20;99.90;;;;;;5073001;28;20025;-69
2022/05/29 08:44:47;;;;;;;8.55;3.58;;;14.80;99.90;;;;;;5056509;28;20497;-70
2022/05/29 08:47:15;;;;;;;7.32;2.95;;;14.80;99.90;;;;;;5073442;28;20016;-69
2022/05/29 08:49:45;;;;;;;10.45;3.72;;;14.50;99.90;;;;;;5072882;28;20021;-69
2022/05/29 08:52:41;;;;;;;6.55;2.70;;;14.10;99.90;;;;;;5074138;28;20037;-69
2022/05/29 08:55:18;;;;;;;10.90;2.90;;;14.00;99.90;;;;;;5073989;28;20441;-69
2022/05/29 08:58:08;;;;;;;6.68;2.88;;;13.90;99.90;;;;;;5073972;28;20032;-69
2022/05/29 09:01:06;;;;;;;9.75;2.90;;;13.70;99.90;;;;;;5073880;28;20017;-69
2022/05/29 09:03:53;;;;;;;9.77;3.17;;;13.60;99.90;;;;;;5073768;28;20032;-69
2022/05/29 09:06:29;;;;;;;7.57;3.17;;;13.40;99.90;;;;;;5073788;28;20490;-69
2022/05/29 09:11:40;;;;;;;9.20;3.47;;;13.40;99.90;;;;;;5070660;28;20943;-69
2022/05/29 09:14:14;;;;;;;9.93;3.92;;;13.60;99.90;;;;;;5069155;28;20545;-68
2022/05/29 09:16:45;;;;;;;8.43;2.70;;;13.80;99.90;;;;;;5070481;28;20060;-68
2022/05/29 09:19:35;;;;;;;8.25;2.80;;;13.90;99.90;;;;;;5070485;28;20025;-69
2022/05/29 09:22:22;;;;;;;9.43;2.72;;;14.00;99.90;;;;;;5070437;28;20499;-69
2022/05/29 09:24:54;;;;;;;6.75;2.67;;;14.20;99.90;;;;;;5070304;28;20095;-69
2022/05/29 09:27:20;;;;;;;7.22;2.92;;;14.80;99.90;;;;;;5070336;28;20108;-69
2022/05/29 09:29:46;;;;;;;18.17;3.90;;;14.50;99.90;;;;;;5070122;28;20104;-69
2022/05/29 09:32:17;;;;;;;10.80;2.95;;;14.10;99.90;;;;;;5070220;28;20444;-68
2022/05/29 09:34:48;;;;;;;9.15;2.83;;;13.00;99.90;;;;;;5070159;28;20067;-68
2022/05/29 09:37:26;;;;;;;8.27;2.25;;;12.20;99.90;;;;;;5068920;28;20024;-68
2022/05/29 09:39:56;;;;;;;5.75;2.22;;;11.70;99.90;;;;;;5068941;28;20025;-68
2022/05/29 09:42:26;;;;;;;7.18;1.90;;;11.60;99.90;;;;;;5069915;28;20503;-68
2022/05/29 09:45:15;;;;;;;5.75;1.80;;;11.60;99.90;;;;;;5070018;28;20031;-68
2022/05/29 09:50:48;;;;;;;4.22;1.52;;;11.60;99.90;;;;;;5069548;28;20399;-69
2022/05/29 09:53:19;;;;;;;3.97;1.70;;;11.80;99.90;;;;;;5068641;28;20024;-68
2022/05/29 09:55:57;;;;;;;2.75;1.40;;;12.00;99.90;;;;;;5069750;28;20021;-69
2022/05/29 09:58:30;;;;;;;6.80;2.15;;;12.40;99.90;;;;;;5069622;28;20104;-68
2022/05/29 10:01:03;;;;;;;;;;;13.20;99.90;;;;;;5070130;28;20033;-69
2022/05/29 10:03:41;;;;;;;4.47;1.80;;;13.60;99.90;;;;;;5085298;28;19904;-69
2022/05/29 10:09:11;;;;;;;5.43;2.42;;;13.80;99.90;;;;;;5111092;27;20797;-69
2022/05/29 10:11:37;;;;;;;3.55;2.25;;;13.50;99.90;;;;;;5111066;28;20044;-69
2022/05/29 10:14:33;;;;;;;5.40;2.55;;;13.60;99.90;;;;;;5109720;28;20024;-70
2022/05/29 10:16:58;;;;;;;5.40;2.10;;;13.60;99.90;;;;;;5111018;28;20107;-69
2022/05/29 10:19:42;;;;;;;4.38;2.20;;;13.70;99.90;;;;;;5110930;28;20102;-69
2022/05/29 10:22:14;;;;;;;5.43;2.25;;;13.60;99.90;;;;;;5110871;28;20477;-69
2022/05/29 10:24:40;;;;;;;5.47;1.90;;;13.80;99.90;;;;;;5110847;28;20519;-69
2022/05/29 10:27:14;;;;;;;7.07;2.10;;;13.80;99.90;;;;;;5110731;28;20385;-69
2022/05/29 10:29:41;;;;;;;6.32;1.92;;;14.30;99.90;;;;;;5110748;28;20024;-69
2022/05/29 10:32:09;;;;;;;5.90;1.77;;;14.50;99.90;;;;;;5110719;28;20047;-69
2022/05/29 10:34:40;;;;;;;7.32;2.05;;;14.70;99.90;;;;;;5110643;28;20482;-70
2022/05/29 10:37:41;;;;;;;4.35;1.83;;;15.30;99.90;;;;;;5110586;28;20551;-69
2022/05/29 10:42:55;;;;;;;6.82;2.20;;;15.60;99.90;;;;;;5070559;28;20855;-69
2022/05/29 10:45:24;;;;;;;5.40;1.98;;;15.20;99.90;;;;;;5069191;28;20024;-69
2022/05/29 10:48:04;;;;;;;7.63;2.38;;;14.80;99.90;;;;;;5070427;28;20017;-68
2022/05/29 10:53:29;;;;;;;7.78;2.38;;;14.80;99.90;;;;;;5111166;27;20351;-69
2022/05/29 10:56:24;;;;;;;11.88;2.67;;;14.40;99.90;;;;;;5092808;28;20115;-68
2022/05/29 10:59:17;;;;;;;11.88;2.88;;;13.30;99.90;;;;;;5110902;28;20420;-69
2022/05/29 11:05:11;;;;;;;11.07;2.38;;;12.50;99.90;;;;;;5110744;28;20027;-68
2022/05/29 11:08:02;;;;;;;11.90;2.53;;;12.30;99.90;;;;;;5110715;28;20058;-67
2022/05/29 11:13:34;;;;;;;10.63;2.40;;;12.30;99.90;;;;;;5111102;27;20763;-68
2022/05/29 11:16:20;;;;;;;;;;;12.50;99.90;;;;;;5111394;28;20028;-69
2022/05/29 11:19:14;;;;;;;7.35;1.80;;;12.80;99.90;;;;;;5111008;28;20384;-68
2022/05/29 11:21:54;;;;;;;7.53;2.22;;;13.30;99.90;;;;;;5110861;28;20024;-69
2022/05/29 11:25:00;;;;;;;6.70;1.70;;;13.60;99.90;;;;;;5110925;28;20048;-69
2022/05/29 11:28:07;;;;;;;3.05;1.20;;;13.80;99.90;;;;;;5109545;28;20015;-68
2022/05/29 11:33:29;;;;;;;4.95;1.20;;;13.90;99.90;;;;;;5090932;28;20768;-69
2022/05/29 11:36:34;;;;;;;3.33;1.58;;;14.00;99.90;;;;;;5089692;28;20547;-69
2022/05/29 11:39:40;;;;;;;3.60;1.20;;;14.20;99.90;;;;;;5090550;28;20063;-69
2022/05/29 11:42:16;;;;;;;7.03;1.60;;;13.90;99.90;;;;;;5089223;28;20025;-68
2022/05/29 11:45:08;;;;;;;6.55;1.67;;;13.90;99.90;;;;;;5090590;28;20023;-69
2022/05/29 11:51:16;;;;;;;2.72;1.15;;;14.50;99.90;;;;;;5090283;28;20028;-69
2022/05/29 11:53:33;;;;;;;6.78;1.48;;;14.70;99.90;;;;;;5090297;28;20511;-69
2022/05/29 11:56:00;;;;;;;;;;;14.70;99.90;;;;;;5090837;28;20036;-69
2022/05/29 11:58:40;;;;;;;4.97;1.50;;;14.70;99.90;;;;;;5089219;28;19905;-68
2022/05/29 12:01:24;;;;;;;8.10;2.13;;;14.50;99.90;;;;;;5090264;28;20055;-69
2022/05/29 12:03:59;;;;;;;5.82;1.48;;;14.60;99.90;;;;;;5090249;28;20020;-69
2022/05/29 12:06:31;;;;;;;3.67;1.60;;;14.50;99.90;;;;;;5090122;28;20535;-69
2022/05/29 12:09:08;;;;;;;7.85;1.92;;;14.50;99.90;;;;;;5090168;28;20489;-69
2022/05/29 12:12:04;;;;;;;6.95;1.58;;;14.40;99.90;;;;;;5089936;28;20109;-69
2022/05/29 12:14:41;;;;;;;6.20;2.25;;;14.60;99.90;;;;;;5074684;28;20021;-69
2022/05/29 12:17:19;;;;;;;6.68;1.55;;;15.10;99.90;;;;;;5089942;28;20021;-69
2022/05/29 12:19:54;;;;;;;6.72;1.50;;;14.90;99.90;;;;;;5088513;28;20025;-69
2022/05/29 12:22:25;;;;;;;7.05;1.80;;;14.60;99.90;;;;;;5088686;28;20482;-69
2022/05/29 12:24:52;;;;;;;8.45;2.40;;;14.70;99.90;;;;;;5089818;28;20024;-69
2022/05/29 12:27:28;;;;;;;4.55;1.85;;;14.50;99.90;;;;;;5088396;28;20024;-69
2022/05/29 12:30:02;;;;;;;7.50;1.75;;;14.70;99.90;;;;;;5089870;28;20060;-69
2022/05/29 12:32:30;;;;;;;8.85;2.00;;;14.90;99.90;;;;;;5089474;28;20135;-69
2022/05/29 12:35:01;;;;;;;6.25;1.88;;;15.10;99.90;;;;;;5071348;28;20551;-69
2022/05/29 12:37:39;;;;;;;5.88;1.95;;;15.20;99.90;;;;;;5089552;28;20414;-68
2022/05/29 12:40:45;;;;;;;5.93;2.15;;;15.10;99.90;;;;;;5089430;28;20052;-70
2022/05/29 12:43:38;;;;;;;7.70;1.80;;;15.00;99.90;;;;;;5083620;28;20494;-69
2022/05/29 12:46:33;;;;;;;9.17;2.20;;;15.20;99.90;;;;;;5075852;28;20056;-69
2022/05/29 12:49:16;;;;;;;7.82;1.83;;;15.30;99.90;;;;;;5075771;28;20796;-69
2022/05/29 12:52:10;;;;;;;6.60;1.98;;;15.20;99.90;;;;;;5075734;28;20490;-69
2022/05/29 12:55:12;;;;;;;6.20;1.90;;;15.50;99.90;;;;;;5074481;28;20188;-69
2022/05/29 12:58:18;;;;;;;5.10;1.90;;;15.60;99.90;;;;;;5075426;28;20021;-69
2022/05/29 13:00:54;;;;;;;5.45;1.73;;;15.60;99.90;;;;;;5075501;28;20399;-69
2022/05/29 13:06:53;;;;;;;7.72;2.15;;;15.80;99.90;;;;;;5070647;28;20350;-68
2022/05/29 13:09:47;;;;;;;9.35;2.22;;;15.50;99.90;;;;;;5070346;28;20384;-68
2022/05/29 13:12:19;;;;;;;8.35;2.33;;;15.30;99.90;;;;;;5070388;28;20065;-68
2022/05/29 13:14:53;;;;;;;7.47;2.75;;;14.70;99.90;;;;;;5070397;28;20029;-68
2022/05/29 13:17:29;;;;;;;13.05;2.97;;;14.40;99.90;;;;;;5070260;28;20541;-69
2022/05/29 13:20:09;;;;;;;9.93;2.55;;;14.30;99.90;;;;;;5070346;28;20438;-68
2022/05/29 13:22:54;;;;;;;6.50;2.20;;;13.90;99.90;;;;;;5070221;28;20029;-68
2022/05/29 13:25:24;;;;;;;9.82;2.75;;;13.80;99.90;;;;;;5069215;28;20070;-68
2022/05/29 13:27:51;;;;;;;9.70;2.60;;;13.70;99.90;;;;;;5070170;28;20059;-69
2022/05/29 13:33:34;;;;;;;8.13;2.78;;;13.70;99.90;;;;;;5070582;28;20138;-69
2022/05/29 13:35:59;;;;;;;7.25;2.78;;;13.90;99.90;;;;;;5069323;28;20029;-68
2022/05/29 13:44:33;;;;;;;8.10;2.58;;;14.40;99.90;;;;;;5111062;27;20408;-69
2022/05/29 13:50:02;;;;;;;10.45;2.80;;;14.90;99.90;;;;;;5089560;28;20441;-69
2022/05/29 13:52:39;;;;;;;5.15;2.08;;;15.30;99.90;;;;;;5090703;28;20041;-69
2022/05/29 13:55:10;;;;;;;6.40;1.95;;;15.40;99.90;;;;;;5090721;28;20047;-70
2022/05/29 14:06:24;;;;;;;6.25;1.98;;;16.00;99.90;;;;;;5090902;28;20401;-70
2022/05/29 14:08:55;;;;;;;7.72;2.17;;;16.30;99.90;;;;;;5090751;28;20016;-70
2022/05/29 14:11:41;;;;;;;4.65;1.60;;;16.50;99.90;;;;;;5089457;28;20036;-69
2022/05/29 14:17:33;;;;;;;8.77;2.17;;;16.10;99.90;;;;;;5090718;28;20409;-70
2022/05/29 14:23:09;;;;;;;6.50;1.75;;;16.30;99.90;;;;;;5070660;28;20353;-69
2022/05/29 14:28:50;;;;;;;6.72;1.77;;;15.80;99.90;;;;;;5111096;27;20400;-69
2022/05/29 14:31:40;;;;;;;4.22;1.80;;;15.60;99.90;;;;;;5109846;28;20055;-69
2022/05/29 14:34:32;;;;;;;5.43;1.77;;;15.50;99.90;;;;;;5111027;28;20469;-69
2022/05/29 14:37:12;;;;;;;8.07;1.70;;;15.10;99.90;;;;;;5110923;28;20073;-70
2022/05/29 14:40:01;;;;;;;7.72;1.80;;;15.10;99.90;;;;;;5110956;28;20024;-69
2022/05/29 14:42:31;;;;;;;5.60;1.30;;;15.00;99.90;;;;;;5110682;28;20520;-69
2022/05/29 14:45:22;;;;;;;3.95;1.20;;;14.80;99.90;;;;;;5109451;28;20020;-69
2022/05/29 14:47:55;;;;;;;1.92;0.98;;;14.80;99.90;;;;;;5110742;28;20111;-69
2022/05/29 14:50:30;;;;;;;2.17;1.00;;;14.80;99.90;;;;;;5109394;28;20027;-69